TUI8EA LGIR-EDDL
Flight info
| Callsign | TUI8EA |
|---|---|
| Flight time | N/A |
| Altitude | 38000 |
| Route | EPALO M749 DIRMI UL613 YNN UL604 DIMIS DCT RETRA DCT PETOV DCT LAMSI L604 RODIS DCT TESDU DCT AMETU T852 TINSA T854 DOMUX DOMUX1A |
| Aircraft | B38M/M-SDE1FGHILORVWXY/HB1 |
Departure
| Time | N/A |
|---|---|
| Airport | Heraklion International Nikos Kazantzakis Airport (LGIR) |
Arrival
| Time | 2026-05-07 13:28 |
|---|---|
| Airport | Düsseldorf Airport (EDDL) |
| Time | Latitude | Longitude | Altitude | Speed | Heading |
|---|---|---|---|---|---|
| 2026-05-07 12:53 | 51.35251 | 10.88841 | 38029 ft | 449 kts | 288° |
| 2026-05-07 12:53 | 51.36023 | 10.84017 | 38007 ft | 447 kts | 275° |
| 2026-05-07 12:53 | 51.36139 | 10.79068 | 38029 ft | 446 kts | 270° |
| 2026-05-07 12:54 | 51.36425 | 10.69201 | 38012 ft | 448 kts | 271° |
| 2026-05-07 12:54 | 51.36708 | 10.59243 | 38016 ft | 448 kts | 271° |
| 2026-05-07 12:55 | 51.36986 | 10.49285 | 38023 ft | 448 kts | 271° |
| 2026-05-07 12:55 | 51.37231 | 10.39317 | 38026 ft | 449 kts | 271° |
| 2026-05-07 12:56 | 51.37470 | 10.29340 | 38019 ft | 449 kts | 271° |
| 2026-05-07 12:56 | 51.37703 | 10.19362 | 38023 ft | 449 kts | 271° |
| 2026-05-07 12:57 | 51.37934 | 10.09366 | 38025 ft | 448 kts | 271° |
| 2026-05-07 12:57 | 51.38156 | 9.99400 | 38027 ft | 448 kts | 271° |
| 2026-05-07 12:58 | 51.38375 | 9.89418 | 38026 ft | 449 kts | 271° |
| 2026-05-07 12:58 | 51.38587 | 9.79418 | 38042 ft | 449 kts | 271° |
| 2026-05-07 12:59 | 51.38794 | 9.69510 | 38042 ft | 448 kts | 271° |
| 2026-05-07 12:59 | 51.38998 | 9.59533 | 38046 ft | 448 kts | 271° |
| 2026-05-07 13:00 | 51.39199 | 9.49554 | 38052 ft | 448 kts | 271° |
| 2026-05-07 13:00 | 51.39394 | 9.39557 | 38047 ft | 448 kts | 271° |
| 2026-05-07 13:01 | 51.39583 | 9.29592 | 38050 ft | 448 kts | 271° |
| 2026-05-07 13:01 | 51.39769 | 9.19602 | 38049 ft | 448 kts | 271° |
| 2026-05-07 13:02 | 51.39951 | 9.09696 | 38042 ft | 448 kts | 271° |
| 2026-05-07 13:02 | 51.40132 | 8.99713 | 38040 ft | 448 kts | 270° |
| 2026-05-07 13:03 | 51.40310 | 8.89729 | 38042 ft | 448 kts | 270° |
| 2026-05-07 13:03 | 51.40486 | 8.79755 | 38044 ft | 448 kts | 271° |
| 2026-05-07 13:04 | 51.40657 | 8.69792 | 38046 ft | 448 kts | 270° |
| 2026-05-07 13:04 | 51.40826 | 8.59816 | 38049 ft | 448 kts | 270° |
| 2026-05-07 13:05 | 51.40991 | 8.49851 | 38048 ft | 448 kts | 270° |
| 2026-05-07 13:05 | 51.41151 | 8.39869 | 38049 ft | 448 kts | 270° |
| 2026-05-07 13:06 | 51.41305 | 8.29893 | 38049 ft | 448 kts | 270° |
| 2026-05-07 13:06 | 51.41453 | 8.19909 | 38047 ft | 448 kts | 270° |
| 2026-05-07 13:07 | 51.41596 | 8.09942 | 38051 ft | 448 kts | 270° |
| 2026-05-07 13:07 | 51.41735 | 7.99956 | 38044 ft | 448 kts | 270° |
| 2026-05-07 13:08 | 51.41870 | 7.89965 | 38047 ft | 448 kts | 270° |
| 2026-05-07 13:08 | 51.41999 | 7.80039 | 38051 ft | 448 kts | 270° |
| 2026-05-07 13:09 | 51.42124 | 7.70046 | 38052 ft | 448 kts | 270° |
| 2026-05-07 13:09 | 51.42245 | 7.60059 | 38052 ft | 448 kts | 270° |
| 2026-05-07 13:10 | 51.42363 | 7.50090 | 37940 ft | 442 kts | 270° |
| 2026-05-07 13:10 | 51.42417 | 7.45173 | 37241 ft | 441 kts | 270° |
| 2026-05-07 13:10 | 51.42460 | 7.40284 | 36738 ft | 436 kts | 270° |
| 2026-05-07 13:11 | 51.42493 | 7.35448 | 36312 ft | 431 kts | 270° |
| 2026-05-07 13:11 | 51.42517 | 7.30678 | 35864 ft | 426 kts | 270° |
| 2026-05-07 13:11 | 51.42534 | 7.25958 | 35428 ft | 421 kts | 270° |
| 2026-05-07 13:11 | 51.42369 | 7.21304 | 34925 ft | 418 kts | 262° |
| 2026-05-07 13:12 | 51.42109 | 7.16894 | 34519 ft | 409 kts | 269° |
| 2026-05-07 13:12 | 51.42064 | 7.12353 | 33713 ft | 406 kts | 270° |
| 2026-05-07 13:12 | 51.42050 | 7.07931 | 32926 ft | 401 kts | 270° |
| 2026-05-07 13:12 | 51.42042 | 7.03490 | 32166 ft | 395 kts | 270° |
| 2026-05-07 13:13 | 51.42040 | 6.99109 | 31460 ft | 390 kts | 270° |
| 2026-05-07 13:13 | 51.42043 | 6.94810 | 30850 ft | 382 kts | 270° |
| 2026-05-07 13:13 | 51.42052 | 6.90572 | 29971 ft | 382 kts | 270° |
| 2026-05-07 13:13 | 51.42068 | 6.86261 | 28590 ft | 391 kts | 270° |
| 2026-05-07 13:14 | 51.42090 | 6.81846 | 27126 ft | 401 kts | 270° |
| 2026-05-07 13:14 | 51.41973 | 6.77355 | 25609 ft | 410 kts | 259° |
| 2026-05-07 13:14 | 51.41049 | 6.73015 | 24324 ft | 414 kts | 240° |
| 2026-05-07 13:14 | 51.40016 | 6.70469 | 23719 ft | 410 kts | 234° |
| 2026-05-07 13:15 | 51.37752 | 6.65639 | 22323 ft | 402 kts | 233° |
| 2026-05-07 13:15 | 51.36068 | 6.62097 | 21303 ft | 397 kts | 233° |
| 2026-05-07 13:15 | 51.34965 | 6.59782 | 20650 ft | 394 kts | 233° |
| 2026-05-07 13:15 | 51.33309 | 6.56321 | 19698 ft | 389 kts | 233° |
| 2026-05-07 13:16 | 51.31669 | 6.52904 | 18791 ft | 384 kts | 233° |
| 2026-05-07 13:16 | 51.30050 | 6.49540 | 17869 ft | 379 kts | 233° |
| 2026-05-07 13:16 | 51.28454 | 6.46231 | 16914 ft | 374 kts | 233° |
| 2026-05-07 13:16 | 51.26875 | 6.42964 | 15994 ft | 369 kts | 233° |
| 2026-05-07 13:17 | 51.25307 | 6.39724 | 15125 ft | 365 kts | 233° |
| 2026-05-07 13:17 | 51.23765 | 6.36549 | 14309 ft | 360 kts | 233° |
| 2026-05-07 13:17 | 51.22243 | 6.33426 | 13442 ft | 355 kts | 233° |
| 2026-05-07 13:17 | 51.20734 | 6.30333 | 12561 ft | 351 kts | 233° |
| 2026-05-07 13:18 | 51.19241 | 6.27264 | 11685 ft | 347 kts | 233° |
| 2026-05-07 13:18 | 51.17772 | 6.24232 | 10842 ft | 344 kts | 233° |
| 2026-05-07 13:18 | 51.16322 | 6.21232 | 10018 ft | 340 kts | 233° |
| 2026-05-07 13:18 | 51.14876 | 6.18280 | 9097 ft | 337 kts | 229° |
| 2026-05-07 13:19 | 51.13035 | 6.16029 | 8319 ft | 332 kts | 206° |
| 2026-05-07 13:19 | 51.10851 | 6.15123 | 7800 ft | 321 kts | 182° |
| 2026-05-07 13:19 | 51.08700 | 6.15637 | 7353 ft | 308 kts | 159° |
| 2026-05-07 13:19 | 51.06944 | 6.17430 | 7011 ft | 298 kts | 133° |
| 2026-05-07 13:20 | 51.05851 | 6.20084 | 6904 ft | 286 kts | 114° |
| 2026-05-07 13:20 | 51.05060 | 6.22921 | 6807 ft | 275 kts | 112° |
| 2026-05-07 13:20 | 51.04406 | 6.25716 | 6698 ft | 265 kts | 99° |
| 2026-05-07 13:20 | 51.04459 | 6.28536 | 6636 ft | 250 kts | 73° |
| 2026-05-07 13:21 | 51.05255 | 6.30881 | 6564 ft | 237 kts | 45° |
| 2026-05-07 13:21 | 51.06535 | 6.32496 | 6231 ft | 237 kts | 34° |
| 2026-05-07 13:21 | 51.07818 | 6.34150 | 6006 ft | 235 kts | 41° |
| 2026-05-07 13:21 | 51.08964 | 6.35987 | 5756 ft | 234 kts | 46° |
| 2026-05-07 13:22 | 51.10028 | 6.37930 | 5488 ft | 233 kts | 49° |
| 2026-05-07 13:22 | 51.11034 | 6.39908 | 5353 ft | 226 kts | 50° |
| 2026-05-07 13:22 | 51.11995 | 6.41864 | 5151 ft | 223 kts | 51° |
| 2026-05-07 13:22 | 51.12951 | 6.43835 | 4829 ft | 226 kts | 51° |
| 2026-05-07 13:23 | 51.13915 | 6.45828 | 4470 ft | 228 kts | 51° |
| 2026-05-07 13:23 | 51.14882 | 6.47841 | 4175 ft | 229 kts | 51° |
| 2026-05-07 13:23 | 51.15841 | 6.49842 | 4018 ft | 223 kts | 51° |
| 2026-05-07 13:23 | 51.16747 | 6.51738 | 4015 ft | 213 kts | 51° |
| 2026-05-07 13:24 | 51.17647 | 6.53530 | 3768 ft | 200 kts | 49° |
| 2026-05-07 13:24 | 51.18491 | 6.55279 | 3280 ft | 202 kts | 52° |
| 2026-05-07 13:24 | 51.19291 | 6.57085 | 2983 ft | 194 kts | 53° |
| 2026-05-07 13:24 | 51.20024 | 6.58821 | 2839 ft | 182 kts | 54° |
| 2026-05-07 13:25 | 51.20670 | 6.60421 | 2826 ft | 158 kts | 56° |
| 2026-05-07 13:25 | 51.21232 | 6.61832 | 2565 ft | 142 kts | 53° |
| 2026-05-07 13:25 | 51.21801 | 6.63012 | 2262 ft | 132 kts | 50° |
| 2026-05-07 13:25 | 51.22396 | 6.64111 | 2066 ft | 129 kts | 46° |
| 2026-05-07 13:26 | 51.22969 | 6.65199 | 1915 ft | 136 kts | 51° |
| 2026-05-07 13:26 | 51.23586 | 6.66435 | 1841 ft | 143 kts | 49° |
| 2026-05-07 13:26 | 51.24243 | 6.67653 | 1561 ft | 145 kts | 45° |
| 2026-05-07 13:26 | 51.24901 | 6.68851 | 1355 ft | 138 kts | 48° |
| 2026-05-07 13:27 | 51.25484 | 6.70034 | 1066 ft | 134 kts | 50° |
| 2026-05-07 13:27 | 51.26061 | 6.71235 | 825 ft | 139 kts | 49° |
| 2026-05-07 13:27 | 51.26655 | 6.72471 | 638 ft | 141 kts | 49° |
| 2026-05-07 13:27 | 51.27246 | 6.73703 | 426 ft | 136 kts | 50° |
| 2026-05-07 13:28 | 51.27810 | 6.74887 | 251 ft | 135 kts | 48° |
| 2026-05-07 13:28 | 51.28374 | 6.76069 | 140 ft | 129 kts | 49° |
| 2026-05-07 13:28 | 51.28846 | 6.77054 | 133 ft | 81 kts | 53° |
| 2026-05-07 13:28 | 51.29013 | 6.77428 | 132 ft | 20 kts | 69° |
| 2026-05-07 13:29 | 51.28970 | 6.77611 | 132 ft | 12 kts | 143° |
| 2026-05-07 13:29 | 51.28909 | 6.77635 | 132 ft | 11 kts | 205° |
| 2026-05-07 13:29 | 51.28850 | 6.77534 | 132 ft | 14 kts | 232° |
| 2026-05-07 13:29 | 51.28780 | 6.77389 | 132 ft | 19 kts | 233° |
| 2026-05-07 13:30 | 51.28694 | 6.77210 | 132 ft | 21 kts | 233° |
| 2026-05-07 13:30 | 51.28604 | 6.77018 | 132 ft | 23 kts | 233° |
| 2026-05-07 13:30 | 51.28503 | 6.76805 | 129 ft | 24 kts | 232° |
| 2026-05-07 13:30 | 51.28412 | 6.76616 | 126 ft | 21 kts | 232° |
| 2026-05-07 13:31 | 51.28319 | 6.76421 | 129 ft | 23 kts | 234° |
| 2026-05-07 13:31 | 51.28231 | 6.76234 | 131 ft | 19 kts | 232° |
| 2026-05-07 13:31 | 51.28165 | 6.76098 | 132 ft | 13 kts | 232° |
| 2026-05-07 13:31 | 51.28103 | 6.76035 | 132 ft | 10 kts | 168° |
| 2026-05-07 13:32 | 51.28039 | 6.76047 | 132 ft | 9 kts | 179° |
| 2026-05-07 13:32 | 51.27984 | 6.76047 | 133 ft | 8 kts | 179° |
| 2026-05-07 13:32 | 51.27928 | 6.76048 | 133 ft | 9 kts | 180° |
| 2026-05-07 13:32 | 51.27867 | 6.76055 | 133 ft | 8 kts | 155° |
| 2026-05-07 13:33 | 51.27842 | 6.76135 | 133 ft | 10 kts | 94° |
| 2026-05-07 13:33 | 51.27846 | 6.76248 | 133 ft | 9 kts | 64° |
| 2026-05-07 13:33 | 51.27874 | 6.76306 | 133 ft | 4 kts | 50° |
| 2026-05-07 13:33 | 51.27885 | 6.76327 | 133 ft | 1 kts | 50° |
| 2026-05-07 13:34 | 51.27886 | 6.76328 | 133 ft | 0 kts | 50° |